首页
METAR-TAF:

METAR-TAF

机场 :

馬林迪, 肯尼亚

纬度: 03-14S, 经度: 040-06E, 海拔: 20米

当前天气观测

该预报发布于33分钟前的08:00 UTC
风速5节,风向
温度 30°C
湿度 75%
气压 1011 hPa
能见度10公里或以上
少量云层高于2300英尺, 积雨云.
散云层高于2400英尺
多云层高于25000英尺

METAR: HKML 100800Z 36005KT 9999 FEW023CB SCT024 BKN250 30/25 Q1011

时间: 11:33 (08:33 UTC)

预报

该预报发布于3小时和33分钟前的05:00 UTC
预报有效从10日的 06点(UTC)到 11日的 06点(UTC)
风速节,风向
能见度10公里或以上
散云层高于2000英尺
成为
从 10日的 09点(UTC)到 10日的 12点(UTC)
风速10节,风向东北
少量云层高于2200英尺, 积雨云.
散云层高于2300英尺
多云层高于8000英尺
短暂存在
从 10日的 15点(UTC)到 10日的 18点(UTC)
少量云层高于2100英尺, 积雨云.
多云层高于8000英尺
雷暴, 小雨
成为
从 10日的 18点(UTC)到 10日的 21点(UTC)
风速节,风向
少量云层高于1900英尺
多云层高于8000英尺
短暂存在
从 11日的 00点(UTC)到 11日的 06点(UTC)
散云层高于1900英尺
多云层高于8000英尺
小雨

TAF: HKML 100500Z 1006/1106 00000KT 9999 SCT020 BECMG 1009/1012 05010KT FEW022CB SCT023 BKN080 TEMPO 1015/1018 -TSRA FEW021CB BKN080 BECMG 1018/1021 00000KT FEW019 BKN080 TEMPO 1100/1106 -RA SCT019 BKN080

超过4000个机场的气象观测和天气预报(METAR&TAF报告)。

可查询的气象台以黄色和红色小点在地图上表示。

将鼠标移到小点上方,可查看气象台名称。

然后点击查看天气观测和预报。

如需切换地图:点击带黑十字的绿色按钮放大地图;点击带横线的绿色按钮缩小地图;或者点击绿色箭头查看邻近地区的地图。


METAR-TAF: